createdAt,value
2018-12-31T00:00:30.374Z,6.17
2018-12-31T00:02:59.523Z,6.90
2018-12-31T00:05:28.649Z,6.33
2018-12-31T00:07:57.791Z,7.47
2018-12-31T00:10:26.928Z,7.00
2018-12-31T00:12:56.095Z,6.67
2018-12-31T00:15:25.224Z,8.17
2018-12-31T00:17:54.373Z,7.63
2018-12-31T00:20:23.527Z,6.53
2018-12-31T00:22:52.680Z,7.17
2018-12-31T00:25:21.826Z,8.23
2018-12-31T00:27:50.977Z,6.93
2018-12-31T00:30:20.100Z,7.63
2018-12-31T00:32:49.259Z,7.93
2018-12-31T00:35:18.495Z,8.33
2018-12-31T00:37:47.623Z,4.90
2018-12-31T00:40:16.752Z,6.47
2018-12-31T00:42:45.901Z,5.87
2018-12-31T00:45:15.043Z,5.13
2018-12-31T00:47:44.184Z,5.97
2018-12-31T00:50:13.309Z,5.83
2018-12-31T00:52:42.487Z,5.50
2018-12-31T00:55:11.616Z,6.03
2018-12-31T00:57:40.750Z,4.73
2018-12-31T01:00:09.979Z,5.33
2018-12-31T01:02:39.101Z,4.17
2018-12-31T01:05:08.263Z,4.90
2018-12-31T01:07:37.396Z,4.17
2018-12-31T01:10:07.090Z,4.87
2018-12-31T01:12:36.218Z,4.00
2018-12-31T01:15:05.445Z,4.17
2018-12-31T01:17:34.581Z,3.70
2018-12-31T01:20:03.736Z,3.60
2018-12-31T01:22:32.866Z,4.13
2018-12-31T01:25:02.023Z,4.53
2018-12-31T01:27:31.157Z,3.83
2018-12-31T01:30:00.350Z,3.50
2018-12-31T01:32:29.487Z,3.83
2018-12-31T01:34:58.633Z,3.47
2018-12-31T01:37:27.754Z,4.60
2018-12-31T01:39:56.892Z,4.03
2018-12-31T01:42:26.038Z,2.80
2018-12-31T01:44:55.181Z,4.17
2018-12-31T01:47:24.297Z,4.13
2018-12-31T01:49:53.442Z,4.23
2018-12-31T01:52:22.580Z,3.67
2018-12-31T01:54:51.737Z,4.37
2018-12-31T01:57:20.888Z,4.00
2018-12-31T01:59:50.038Z,3.43
2018-12-31T02:02:19.158Z,3.70
2018-12-31T02:04:48.479Z,3.63
2018-12-31T02:07:17.602Z,3.27
2018-12-31T02:09:46.750Z,2.87
2018-12-31T02:12:15.882Z,3.40
2018-12-31T02:14:45.032Z,4.40
2018-12-31T02:17:14.155Z,3.63
2018-12-31T02:19:43.309Z,4.10
2018-12-31T02:22:12.442Z,4.40
2018-12-31T02:24:41.584Z,3.73
2018-12-31T02:27:10.738Z,3.23
2018-12-31T02:29:39.884Z,4.07
2018-12-31T02:32:09.013Z,2.90
2018-12-31T02:34:38.161Z,3.57
2018-12-31T02:37:07.295Z,3.90
2018-12-31T02:39:36.426Z,3.63
2018-12-31T02:42:05.573Z,4.30
2018-12-31T02:44:34.702Z,3.90
2018-12-31T02:47:03.890Z,3.60
2018-12-31T02:49:33.052Z,3.87
2018-12-31T02:52:02.218Z,3.80
2018-12-31T02:54:31.335Z,3.37
2018-12-31T02:57:00.496Z,3.73
2018-12-31T02:59:29.627Z,3.07
2018-12-31T03:01:58.768Z,3.37
2018-12-31T03:04:27.965Z,3.03
2018-12-31T03:06:57.099Z,2.97
2018-12-31T03:09:26.225Z,3.00
2018-12-31T03:11:55.377Z,3.53
2018-12-31T03:14:24.512Z,3.87
2018-12-31T03:16:53.661Z,2.83
2018-12-31T03:19:22.795Z,2.30
2018-12-31T03:21:51.934Z,3.30
2018-12-31T03:24:21.057Z,3.07
2018-12-31T03:26:50.195Z,3.10
2018-12-31T03:29:19.315Z,3.40
2018-12-31T03:31:48.477Z,2.57
2018-12-31T03:34:17.622Z,3.67
2018-12-31T03:36:46.765Z,3.60
2018-12-31T03:39:15.893Z,2.50
2018-12-31T03:41:45.049Z,2.80
2018-12-31T03:44:14.169Z,2.30
2018-12-31T03:46:43.308Z,2.50
2018-12-31T03:49:12.513Z,2.90
2018-12-31T03:51:41.660Z,3.50
2018-12-31T03:54:10.800Z,3.40
2018-12-31T03:56:39.955Z,3.47
2018-12-31T03:59:09.089Z,3.10
2018-12-31T04:01:38.254Z,3.00
2018-12-31T04:04:07.386Z,2.90
2018-12-31T04:06:36.546Z,2.90
2018-12-31T04:09:06.740Z,3.23
2018-12-31T04:11:35.891Z,3.33
2018-12-31T04:14:05.010Z,2.63
2018-12-31T04:16:34.172Z,2.80
2018-12-31T04:19:03.306Z,2.50
2018-12-31T04:21:32.450Z,3.03
2018-12-31T04:24:01.575Z,3.27
2018-12-31T04:26:30.698Z,3.53
2018-12-31T04:28:59.845Z,3.10
2018-12-31T04:31:28.976Z,2.77
2018-12-31T04:33:58.124Z,2.50
2018-12-31T04:36:27.245Z,3.70
2018-12-31T04:38:56.391Z,2.90
2018-12-31T04:41:25.538Z,3.43
2018-12-31T04:43:54.682Z,2.80
2018-12-31T04:46:23.831Z,3.47
2018-12-31T04:48:52.979Z,3.13
2018-12-31T04:51:22.128Z,3.27
2018-12-31T04:53:51.288Z,3.57
2018-12-31T04:56:20.412Z,3.80
2018-12-31T04:58:49.562Z,3.53
2018-12-31T05:01:18.708Z,3.37
2018-12-31T05:03:47.877Z,3.60
2018-12-31T05:06:17.018Z,2.03
2018-12-31T05:08:46.169Z,3.83
2018-12-31T05:11:15.298Z,3.37
2018-12-31T05:13:44.431Z,3.20
2018-12-31T05:16:13.573Z,3.70
2018-12-31T05:18:42.723Z,3.43
2018-12-31T05:21:11.891Z,6.77
2018-12-31T05:23:41.001Z,8.57
2018-12-31T05:26:10.123Z,6.20
2018-12-31T05:28:39.272Z,5.73
2018-12-31T05:31:08.411Z,4.23
2018-12-31T05:33:37.561Z,4.03
2018-12-31T05:36:06.691Z,5.43
2018-12-31T05:38:35.825Z,3.73
2018-12-31T05:41:04.975Z,5.03
2018-12-31T05:43:34.124Z,4.60
2018-12-31T05:46:03.271Z,4.43
2018-12-31T05:48:32.417Z,5.10
2018-12-31T05:51:01.549Z,5.50
2018-12-31T05:53:30.696Z,4.13
2018-12-31T05:55:59.834Z,4.93
2018-12-31T05:58:28.991Z,3.53
2018-12-31T06:00:58.121Z,4.83
2018-12-31T06:03:27.277Z,5.10
2018-12-31T06:05:56.400Z,4.60
2018-12-31T06:08:25.716Z,4.13
2018-12-31T06:10:54.849Z,4.73
2018-12-31T06:13:24.008Z,4.27
2018-12-31T06:15:53.142Z,5.10
2018-12-31T06:18:22.280Z,5.03
2018-12-31T06:20:51.423Z,4.07
2018-12-31T06:23:20.560Z,3.53
2018-12-31T06:25:49.703Z,4.50
2018-12-31T06:28:18.831Z,3.97
2018-12-31T06:30:47.973Z,5.33
2018-12-31T06:33:17.118Z,5.00
2018-12-31T06:35:46.272Z,5.17
2018-12-31T06:38:15.416Z,4.70
2018-12-31T06:40:44.587Z,3.57
2018-12-31T06:43:13.723Z,4.10
2018-12-31T06:45:42.883Z,5.57
2018-12-31T06:48:12.019Z,4.47
2018-12-31T06:50:41.180Z,5.20
2018-12-31T06:53:10.326Z,4.53
2018-12-31T06:55:39.475Z,5.23
2018-12-31T06:58:08.606Z,4.93
2018-12-31T07:00:37.774Z,6.77
2018-12-31T07:03:06.908Z,9.83
2018-12-31T07:05:36.073Z,8.70
2018-12-31T07:08:05.211Z,6.00
2018-12-31T07:10:34.372Z,8.60
2018-12-31T07:13:03.502Z,8.40
2018-12-31T07:15:32.643Z,6.20
2018-12-31T07:18:01.781Z,6.70
2018-12-31T07:20:30.936Z,7.17
2018-12-31T07:23:00.078Z,6.70
2018-12-31T07:25:29.272Z,7.63
2018-12-31T07:27:58.416Z,8.67
2018-12-31T07:30:27.577Z,8.30
2018-12-31T07:32:56.751Z,6.67
2018-12-31T07:35:25.897Z,10.53
2018-12-31T07:37:55.030Z,9.03
2018-12-31T07:40:24.188Z,9.73
2018-12-31T07:42:53.321Z,8.87
2018-12-31T07:45:24.211Z,6.73
2018-12-31T07:47:53.280Z,7.37
2018-12-31T07:50:22.448Z,7.13
2018-12-31T07:52:51.578Z,6.00
2018-12-31T07:55:20.712Z,6.13
2018-12-31T07:57:49.847Z,6.33
2018-12-31T08:00:19.000Z,5.63
2018-12-31T08:02:48.142Z,8.60
2018-12-31T08:05:17.323Z,5.67
2018-12-31T08:07:46.449Z,5.97
2018-12-31T08:10:15.653Z,9.67
2018-12-31T08:12:44.794Z,7.50
2018-12-31T08:15:13.937Z,8.27
2018-12-31T08:17:43.067Z,5.47
2018-12-31T08:20:12.227Z,6.90
2018-12-31T08:22:41.364Z,9.00
2018-12-31T08:25:10.540Z,6.97
2018-12-31T08:27:39.661Z,5.40
2018-12-31T08:30:08.859Z,7.63
2018-12-31T08:32:38.009Z,6.43
2018-12-31T08:35:07.152Z,6.70
2018-12-31T08:37:36.295Z,6.67
2018-12-31T08:40:06.000Z,6.20
2018-12-31T08:42:35.155Z,7.17
2018-12-31T08:45:05.400Z,6.57
2018-12-31T08:47:34.545Z,7.40
2018-12-31T08:50:03.681Z,5.27
2018-12-31T08:52:32.830Z,3.70
2018-12-31T08:55:01.971Z,4.97
2018-12-31T08:57:31.116Z,7.53
2018-12-31T09:00:00.258Z,8.60
2018-12-31T09:02:29.413Z,7.70
2018-12-31T09:04:58.569Z,9.73
2018-12-31T09:07:27.739Z,13.60
2018-12-31T09:09:56.884Z,28.07
2018-12-31T09:12:26.041Z,18.27
2018-12-31T09:14:55.191Z,19.73
2018-12-31T09:17:24.337Z,34.23
2018-12-31T09:19:53.487Z,30.47
2018-12-31T09:22:22.711Z,17.27
2018-12-31T09:24:51.844Z,13.20
2018-12-31T09:27:21.006Z,11.87
2018-12-31T09:29:50.140Z,9.77
2018-12-31T09:32:19.287Z,8.43
2018-12-31T09:34:48.435Z,8.00
2018-12-31T09:37:17.589Z,8.23
2018-12-31T09:39:46.734Z,7.60
2018-12-31T09:42:15.888Z,8.37
2018-12-31T09:44:45.041Z,8.33
2018-12-31T09:47:14.197Z,14.23
2018-12-31T09:49:43.345Z,12.00
2018-12-31T09:52:12.514Z,13.67
2018-12-31T09:54:41.685Z,15.40
2018-12-31T09:57:10.852Z,12.27
2018-12-31T09:59:40.006Z,10.17
2018-12-31T10:02:09.149Z,7.00
2018-12-31T10:04:38.366Z,11.30
2018-12-31T10:07:07.534Z,11.50
2018-12-31T10:09:36.704Z,12.37
2018-12-31T10:12:05.855Z,9.57
2018-12-31T10:14:35.071Z,6.80
2018-12-31T10:17:04.231Z,5.90
2018-12-31T10:19:33.375Z,5.00
2018-12-31T10:22:02.526Z,5.07
2018-12-31T10:24:31.669Z,4.70
2018-12-31T10:27:00.828Z,7.63
2018-12-31T10:29:36.003Z,7.30
2018-12-31T10:32:00.831Z,5.07
2018-12-31T10:34:29.989Z,5.20
2018-12-31T10:36:59.154Z,5.33
2018-12-31T10:39:28.280Z,6.93
2018-12-31T10:41:57.415Z,6.27
2018-12-31T10:44:26.566Z,4.83
2018-12-31T10:46:55.727Z,6.17
2018-12-31T10:49:24.882Z,6.67
2018-12-31T10:51:54.012Z,6.03
2018-12-31T10:54:23.161Z,5.83
2018-12-31T10:56:52.291Z,5.43
2018-12-31T10:59:21.432Z,5.50
2018-12-31T11:01:50.560Z,5.40
2018-12-31T11:04:19.720Z,6.37
2018-12-31T11:06:48.856Z,6.00
2018-12-31T11:09:18.010Z,6.20
2018-12-31T11:11:47.141Z,5.77
2018-12-31T11:14:16.302Z,6.80
2018-12-31T11:16:45.433Z,5.83
2018-12-31T11:19:14.600Z,5.70
2018-12-31T11:21:43.768Z,8.10
2018-12-31T11:24:12.914Z,5.67
2018-12-31T11:26:42.062Z,6.30
2018-12-31T11:29:11.209Z,7.37
2018-12-31T11:31:40.337Z,6.70
2018-12-31T11:34:09.497Z,9.23
2018-12-31T11:36:38.628Z,8.53
2018-12-31T11:39:08.036Z,6.73
2018-12-31T11:41:37.174Z,7.40
2018-12-31T11:44:06.336Z,7.73
2018-12-31T11:46:35.457Z,6.70
2018-12-31T11:49:04.620Z,7.97
2018-12-31T11:51:33.753Z,6.23
2018-12-31T11:54:02.910Z,7.63
2018-12-31T11:56:32.047Z,7.50
2018-12-31T11:59:01.191Z,6.73
2018-12-31T12:01:30.503Z,8.23
2018-12-31T12:03:59.649Z,9.60
2018-12-31T12:06:28.793Z,8.17
2018-12-31T12:08:57.946Z,8.17
2018-12-31T12:11:27.082Z,7.13
2018-12-31T12:13:56.302Z,8.20
2018-12-31T12:16:25.457Z,6.70
2018-12-31T12:18:54.610Z,5.93
2018-12-31T12:21:24.017Z,7.43
2018-12-31T12:23:53.183Z,7.53
2018-12-31T12:26:22.311Z,6.83
2018-12-31T12:28:51.501Z,7.77
2018-12-31T12:31:20.646Z,5.83
2018-12-31T12:33:50.184Z,10.33
2018-12-31T12:36:19.321Z,7.30
2018-12-31T12:38:48.458Z,7.20
2018-12-31T12:41:17.620Z,6.50
2018-12-31T12:43:46.762Z,5.50
2018-12-31T12:46:15.980Z,6.93
2018-12-31T12:48:45.106Z,7.47
2018-12-31T12:51:14.269Z,5.80
2018-12-31T12:53:43.397Z,6.33
2018-12-31T12:56:12.564Z,6.63
2018-12-31T12:58:41.818Z,8.87
2018-12-31T13:01:10.958Z,7.77
2018-12-31T13:03:40.089Z,6.27
2018-12-31T13:06:09.252Z,8.43
2018-12-31T13:08:38.390Z,7.00
2018-12-31T13:11:07.527Z,5.53
2018-12-31T13:13:36.657Z,7.80
2018-12-31T13:16:05.814Z,11.10
2018-12-31T13:18:34.960Z,13.07
2018-12-31T13:21:04.110Z,11.97
2018-12-31T13:23:33.331Z,10.20
2018-12-31T13:26:02.482Z,10.63
2018-12-31T13:28:31.640Z,8.53
2018-12-31T13:31:00.787Z,8.63
2018-12-31T13:33:29.921Z,7.87
2018-12-31T13:35:59.082Z,12.17
2018-12-31T13:38:28.222Z,11.73
2018-12-31T13:40:57.388Z,11.80
2018-12-31T13:43:26.536Z,10.60
2018-12-31T13:45:55.693Z,11.37
2018-12-31T13:48:26.094Z,8.80
2018-12-31T13:50:55.472Z,12.40
2018-12-31T13:53:24.624Z,12.27
2018-12-31T13:55:53.784Z,12.80
2018-12-31T13:58:23.208Z,11.50
2018-12-31T14:00:52.367Z,9.50
2018-12-31T14:03:21.512Z,11.30
2018-12-31T14:05:50.670Z,8.97
2018-12-31T14:08:19.815Z,10.00
2018-12-31T14:10:49.244Z,9.23
2018-12-31T14:13:19.251Z,10.33
2018-12-31T14:15:48.430Z,11.70
2018-12-31T14:18:17.565Z,10.60
2018-12-31T14:20:46.733Z,10.20
2018-12-31T14:23:15.884Z,11.07
2018-12-31T14:25:45.038Z,9.17
2018-12-31T14:28:14.195Z,9.97
2018-12-31T14:30:43.329Z,9.63
2018-12-31T14:33:12.568Z,10.33
2018-12-31T14:35:45.692Z,11.40
2018-12-31T14:38:12.598Z,9.43
2018-12-31T14:40:41.741Z,10.57
2018-12-31T14:43:10.899Z,10.13
2018-12-31T14:45:40.044Z,10.60
2018-12-31T14:48:09.217Z,12.37
2018-12-31T14:50:38.359Z,13.33
2018-12-31T14:53:07.527Z,19.87
2018-12-31T14:55:36.674Z,17.87
2018-12-31T14:58:05.856Z,17.00
2018-12-31T15:00:35.000Z,14.40
2018-12-31T15:03:04.159Z,12.60
2018-12-31T15:05:33.296Z,12.93
2018-12-31T15:08:02.526Z,9.67
2018-12-31T15:10:31.706Z,11.10
2018-12-31T15:13:00.876Z,9.77
2018-12-31T15:15:30.026Z,11.57
2018-12-31T15:17:59.215Z,12.13
2018-12-31T15:20:28.357Z,11.77
2018-12-31T15:22:57.514Z,9.03
2018-12-31T15:25:26.653Z,10.43
2018-12-31T15:27:55.817Z,7.80
2018-12-31T15:30:24.951Z,5.57
2018-12-31T15:32:54.109Z,5.67
2018-12-31T15:35:23.250Z,8.77
2018-12-31T15:37:52.411Z,7.63
2018-12-31T15:40:21.569Z,8.53
2018-12-31T15:42:50.730Z,9.50
2018-12-31T15:45:19.890Z,7.10
2018-12-31T15:47:49.082Z,8.00
2018-12-31T15:50:18.215Z,7.07
2018-12-31T15:52:47.377Z,9.37
2018-12-31T15:55:16.573Z,8.43
2018-12-31T15:57:45.724Z,7.23
2018-12-31T16:00:14.858Z,8.33
2018-12-31T16:02:44.037Z,8.67
2018-12-31T16:05:13.183Z,8.00
2018-12-31T16:07:45.932Z,6.80
2018-12-31T16:10:13.209Z,5.90
2018-12-31T16:12:42.939Z,9.33
2018-12-31T16:15:12.156Z,7.10
2018-12-31T16:17:41.362Z,6.97
2018-12-31T16:20:10.633Z,8.53
2018-12-31T16:22:39.776Z,9.73
2018-12-31T16:25:09.357Z,7.90
2018-12-31T16:27:38.495Z,8.40
2018-12-31T16:30:08.296Z,6.70
2018-12-31T16:32:37.436Z,6.73
2018-12-31T16:35:06.597Z,12.90
2018-12-31T16:37:36.113Z,9.50
2018-12-31T16:40:06.072Z,9.77
2018-12-31T16:42:35.225Z,8.30
2018-12-31T16:45:05.514Z,8.40
2018-12-31T16:47:34.649Z,7.03
2018-12-31T16:50:04.429Z,7.53
2018-12-31T16:52:33.563Z,7.87
2018-12-31T16:55:02.707Z,6.97
2018-12-31T16:57:31.922Z,7.93
2018-12-31T17:00:01.065Z,9.20
2018-12-31T17:02:30.426Z,9.07
2018-12-31T17:04:59.578Z,7.63
2018-12-31T17:07:28.724Z,7.83
2018-12-31T17:09:57.866Z,9.10
2018-12-31T17:12:26.993Z,7.80
2018-12-31T17:14:56.529Z,5.60
2018-12-31T17:17:25.659Z,6.63
2018-12-31T17:19:54.804Z,5.57
2018-12-31T17:22:23.937Z,5.07
2018-12-31T17:24:53.087Z,7.23
2018-12-31T17:27:22.488Z,5.67
2018-12-31T17:29:51.634Z,4.83
2018-12-31T17:32:20.764Z,6.23
2018-12-31T17:34:49.922Z,6.07
2018-12-31T17:37:19.043Z,5.33
2018-12-31T17:39:48.380Z,5.77
2018-12-31T17:42:17.519Z,6.63
2018-12-31T17:44:46.667Z,5.63
2018-12-31T17:47:15.805Z,7.03
2018-12-31T17:49:44.951Z,6.70
2018-12-31T17:52:14.257Z,7.37
2018-12-31T17:54:43.409Z,6.43
2018-12-31T17:57:12.550Z,11.00
2018-12-31T17:59:41.705Z,12.27
2018-12-31T18:02:10.842Z,8.97
2018-12-31T18:04:40.581Z,8.77
2018-12-31T18:07:09.710Z,10.50
2018-12-31T18:09:38.851Z,8.90
2018-12-31T18:12:07.980Z,8.97
2018-12-31T18:14:37.128Z,8.10
2018-12-31T18:17:06.636Z,12.13
2018-12-31T18:19:35.805Z,12.07
2018-12-31T18:22:04.958Z,14.83
2018-12-31T18:24:34.096Z,15.07
2018-12-31T18:27:03.264Z,11.07
2018-12-31T18:29:32.976Z,12.37
2018-12-31T18:32:02.113Z,7.40
2018-12-31T18:34:31.259Z,6.47
2018-12-31T18:37:00.416Z,8.47
2018-12-31T18:39:29.566Z,7.00
2018-12-31T18:41:59.176Z,5.13
2018-12-31T18:44:28.336Z,9.37
2018-12-31T18:46:57.499Z,8.10
2018-12-31T18:49:26.630Z,7.33
2018-12-31T18:51:55.763Z,7.67
2018-12-31T18:54:25.272Z,8.27
2018-12-31T18:56:54.434Z,6.60
2018-12-31T18:59:23.563Z,7.07
2018-12-31T19:01:52.724Z,7.87
2018-12-31T19:04:21.838Z,7.73
2018-12-31T19:06:51.376Z,7.77
2018-12-31T19:09:20.574Z,7.50
2018-12-31T19:11:49.735Z,8.93
2018-12-31T19:14:18.844Z,9.13
2018-12-31T19:16:48.006Z,10.03
2018-12-31T19:19:17.319Z,11.03
2018-12-31T19:21:47.482Z,10.93
2018-12-31T19:24:16.686Z,24.07
2018-12-31T19:26:45.844Z,31.30
2018-12-31T19:29:14.979Z,21.07
2018-12-31T19:31:44.285Z,15.90
2018-12-31T19:34:13.512Z,15.57
2018-12-31T19:36:42.663Z,13.40
2018-12-31T19:39:11.796Z,17.90
2018-12-31T19:41:40.952Z,15.10
2018-12-31T19:44:10.151Z,15.77
2018-12-31T19:46:39.317Z,14.77
2018-12-31T19:49:08.430Z,23.80
2018-12-31T19:51:37.598Z,18.37
2018-12-31T19:54:06.727Z,15.80
2018-12-31T19:56:35.891Z,15.43
2018-12-31T19:59:07.777Z,16.53
2018-12-31T20:01:36.942Z,15.70
2018-12-31T20:04:06.063Z,15.97
2018-12-31T20:06:35.212Z,12.90
2018-12-31T20:09:05.690Z,15.17
2018-12-31T20:11:34.843Z,15.67
2018-12-31T20:14:03.994Z,13.50
2018-12-31T20:16:33.162Z,11.67
2018-12-31T20:19:02.296Z,17.93
2018-12-31T20:21:31.482Z,21.63
2018-12-31T20:24:00.620Z,20.00
2018-12-31T20:26:29.770Z,15.60
2018-12-31T20:28:58.902Z,15.37
2018-12-31T20:31:28.056Z,15.60
2018-12-31T20:33:57.190Z,15.10
2018-12-31T20:36:26.623Z,13.20
2018-12-31T20:38:55.763Z,13.07
2018-12-31T20:41:24.918Z,11.50
2018-12-31T20:43:54.045Z,10.50
2018-12-31T20:46:23.197Z,11.07
2018-12-31T20:48:52.328Z,9.73
2018-12-31T20:51:21.469Z,14.80
2018-12-31T20:53:50.644Z,11.57
2018-12-31T20:56:19.752Z,14.00
2018-12-31T20:58:48.902Z,12.93
2018-12-31T21:01:18.052Z,13.23
2018-12-31T21:03:47.192Z,16.70
2018-12-31T21:06:16.322Z,14.70
2018-12-31T21:08:45.601Z,19.47
2018-12-31T21:11:14.757Z,14.73
2018-12-31T21:13:43.914Z,16.43
2018-12-31T21:16:13.128Z,16.40
2018-12-31T21:18:42.270Z,16.83
2018-12-31T21:21:11.431Z,14.97
2018-12-31T21:23:41.308Z,9.10
2018-12-31T21:26:10.495Z,9.80
2018-12-31T21:28:40.027Z,10.50
2018-12-31T21:31:09.162Z,10.73
2018-12-31T21:33:38.319Z,10.23
2018-12-31T21:36:07.462Z,10.53
2018-12-31T21:38:36.611Z,11.57
2018-12-31T21:41:06.020Z,11.10
2018-12-31T21:43:35.165Z,7.83
2018-12-31T21:46:04.293Z,9.37
2018-12-31T21:48:33.441Z,9.20
2018-12-31T21:51:02.570Z,9.30
2018-12-31T21:53:31.719Z,11.30
2018-12-31T21:56:00.854Z,9.47
2018-12-31T21:58:29.998Z,8.53
2018-12-31T22:00:59.141Z,11.70
2018-12-31T22:03:28.306Z,11.43
2018-12-31T22:05:57.461Z,9.40
2018-12-31T22:08:26.605Z,10.20
2018-12-31T22:10:55.734Z,8.83
2018-12-31T22:13:24.886Z,9.80
2018-12-31T22:15:54.030Z,8.33
2018-12-31T22:18:23.251Z,12.87
2018-12-31T22:20:52.437Z,12.13
2018-12-31T22:23:21.610Z,10.63
2018-12-31T22:25:50.728Z,8.10
2018-12-31T22:28:19.877Z,13.03
2018-12-31T22:30:49.015Z,12.60
2018-12-31T22:33:18.170Z,8.80
2018-12-31T22:35:47.306Z,12.23
2018-12-31T22:38:16.455Z,8.67
2018-12-31T22:40:45.585Z,9.70
2018-12-31T22:43:14.735Z,10.43
2018-12-31T22:45:44.060Z,10.93
2018-12-31T22:48:13.201Z,9.47
2018-12-31T22:50:42.348Z,11.23
2018-12-31T22:53:11.496Z,9.63
2018-12-31T22:55:40.622Z,11.37
2018-12-31T22:58:09.976Z,11.07
2018-12-31T23:00:39.110Z,9.47
2018-12-31T23:03:08.252Z,10.10
2018-12-31T23:05:37.436Z,12.77
2018-12-31T23:08:06.537Z,14.60
2018-12-31T23:10:35.868Z,16.73
2018-12-31T23:13:04.997Z,23.07
2018-12-31T23:15:34.314Z,18.13
2018-12-31T23:18:03.455Z,26.60
2018-12-31T23:20:32.602Z,19.50
2018-12-31T23:23:01.735Z,14.77
2018-12-31T23:25:30.885Z,17.80
2018-12-31T23:28:00.026Z,31.10
2018-12-31T23:30:29.179Z,76.50
2018-12-31T23:32:58.319Z,52.77
2018-12-31T23:35:27.940Z,34.23
2018-12-31T23:37:57.091Z,32.37
2018-12-31T23:40:26.246Z,70.63
2018-12-31T23:42:55.381Z,38.07
2018-12-31T23:45:24.534Z,60.00
2018-12-31T23:47:54.154Z,59.13
2018-12-31T23:50:23.312Z,77.83
2018-12-31T23:52:52.550Z,35.03
2018-12-31T23:55:21.730Z,70.73
2018-12-31T23:57:50.844Z,53.70
